sensor_id;sensor_type;location;lat;lon;timestamp;temperature;humidity
20432;DHT22;10375;49.136;10.366;2024-01-06T00:00:22;2.60;99.90
20432;DHT22;10375;49.136;10.366;2024-01-06T00:02:50;2.60;99.90
20432;DHT22;10375;49.136;10.366;2024-01-06T00:05:17;2.60;99.90
20432;DHT22;10375;49.136;10.366;2024-01-06T00:07:44;2.60;99.90
20432;DHT22;10375;49.136;10.366;2024-01-06T00:10:11;2.50;99.90
20432;DHT22;10375;49.136;10.366;2024-01-06T00:12:43;2.50;99.90
20432;DHT22;10375;49.136;10.366;2024-01-06T00:15:10;2.60;99.90
20432;DHT22;10375;49.136;10.366;2024-01-06T00:17:40;2.50;99.90
20432;DHT22;10375;49.136;10.366;2024-01-06T00:20:07;2.60;99.90
20432;DHT22;10375;49.136;10.366;2024-01-06T00:22:35;2.50;99.90
20432;DHT22;10375;49.136;10.366;2024-01-06T00:25:02;2.50;99.90
20432;DHT22;10375;49.136;10.366;2024-01-06T00:27:29;2.40;99.90
20432;DHT22;10375;49.136;10.366;2024-01-06T00:29:57;2.40;99.90
20432;DHT22;10375;49.136;10.366;2024-01-06T00:32:24;2.50;99.90
20432;DHT22;10375;49.136;10.366;2024-01-06T00:34:51;2.40;99.90
20432;DHT22;10375;49.136;10.366;2024-01-06T00:37:18;2.40;99.90
20432;DHT22;10375;49.136;10.366;2024-01-06T00:39:45;2.40;99.90
20432;DHT22;10375;49.136;10.366;2024-01-06T00:42:12;2.40;99.90
20432;DHT22;10375;49.136;10.366;2024-01-06T00:44:39;2.40;99.90
20432;DHT22;10375;49.136;10.366;2024-01-06T00:47:07;2.40;99.90
20432;DHT22;10375;49.136;10.366;2024-01-06T00:49:34;2.50;99.90
20432;DHT22;10375;49.136;10.366;2024-01-06T00:52:01;2.50;99.90
20432;DHT22;10375;49.136;10.366;2024-01-06T00:54:29;2.50;99.90
20432;DHT22;10375;49.136;10.366;2024-01-06T00:56:56;2.50;99.90
20432;DHT22;10375;49.136;10.366;2024-01-06T00:59:24;2.40;99.90
20432;DHT22;10375;49.136;10.366;2024-01-06T01:01:52;2.40;99.90
20432;DHT22;10375;49.136;10.366;2024-01-06T01:04:19;2.50;99.90
20432;DHT22;10375;49.136;10.366;2024-01-06T01:06:47;2.50;99.90
20432;DHT22;10375;49.136;10.366;2024-01-06T01:09:14;2.50;99.90
20432;DHT22;10375;49.136;10.366;2024-01-06T01:11:42;2.50;99.90
20432;DHT22;10375;49.136;10.366;2024-01-06T01:14:09;2.50;99.90
20432;DHT22;10375;49.136;10.366;2024-01-06T01:16:36;2.50;99.90
20432;DHT22;10375;49.136;10.366;2024-01-06T01:19:03;2.50;99.90
20432;DHT22;10375;49.136;10.366;2024-01-06T01:21:31;2.60;99.90
20432;DHT22;10375;49.136;10.366;2024-01-06T01:23:58;2.60;99.90
20432;DHT22;10375;49.136;10.366;2024-01-06T01:26:25;2.60;99.90
20432;DHT22;10375;49.136;10.366;2024-01-06T01:28:52;2.60;99.90
20432;DHT22;10375;49.136;10.366;2024-01-06T01:31:20;2.60;99.90
20432;DHT22;10375;49.136;10.366;2024-01-06T01:33:47;2.60;99.90
20432;DHT22;10375;49.136;10.366;2024-01-06T01:36:14;2.60;99.90
20432;DHT22;10375;49.136;10.366;2024-01-06T01:38:41;2.60;99.90
20432;DHT22;10375;49.136;10.366;2024-01-06T01:41:08;2.60;99.90
20432;DHT22;10375;49.136;10.366;2024-01-06T01:43:35;2.70;99.90
20432;DHT22;10375;49.136;10.366;2024-01-06T01:46:03;2.60;99.90
20432;DHT22;10375;49.136;10.366;2024-01-06T01:48:30;2.60;99.90
20432;DHT22;10375;49.136;10.366;2024-01-06T01:51:01;2.60;99.90
20432;DHT22;10375;49.136;10.366;2024-01-06T01:53:29;2.60;99.90
20432;DHT22;10375;49.136;10.366;2024-01-06T01:55:58;2.60;99.90
20432;DHT22;10375;49.136;10.366;2024-01-06T01:58:26;2.60;99.90
20432;DHT22;10375;49.136;10.366;2024-01-06T02:00:53;2.60;99.90
20432;DHT22;10375;49.136;10.366;2024-01-06T02:03:22;2.50;99.90
20432;DHT22;10375;49.136;10.366;2024-01-06T02:05:51;2.50;99.90
20432;DHT22;10375;49.136;10.366;2024-01-06T02:08:18;2.50;99.90
20432;DHT22;10375;49.136;10.366;2024-01-06T02:10:46;2.50;99.90
20432;DHT22;10375;49.136;10.366;2024-01-06T02:13:13;2.50;99.90
20432;DHT22;10375;49.136;10.366;2024-01-06T02:15:40;2.50;99.90
20432;DHT22;10375;49.136;10.366;2024-01-06T02:18:08;2.50;99.90
20432;DHT22;10375;49.136;10.366;2024-01-06T02:20:36;2.50;99.90
20432;DHT22;10375;49.136;10.366;2024-01-06T02:23:03;2.50;99.90
20432;DHT22;10375;49.136;10.366;2024-01-06T02:25:31;2.50;99.90
20432;DHT22;10375;49.136;10.366;2024-01-06T02:27:58;2.50;99.90
20432;DHT22;10375;49.136;10.366;2024-01-06T02:30:25;2.50;99.90
20432;DHT22;10375;49.136;10.366;2024-01-06T02:32:52;2.50;99.90
20432;DHT22;10375;49.136;10.366;2024-01-06T02:35:20;2.50;99.90
20432;DHT22;10375;49.136;10.366;2024-01-06T02:37:48;2.50;99.90
20432;DHT22;10375;49.136;10.366;2024-01-06T02:40:15;2.40;99.90
20432;DHT22;10375;49.136;10.366;2024-01-06T02:42:42;2.40;99.90
20432;DHT22;10375;49.136;10.366;2024-01-06T02:45:09;2.40;99.90
20432;DHT22;10375;49.136;10.366;2024-01-06T02:47:36;2.40;99.90
20432;DHT22;10375;49.136;10.366;2024-01-06T02:50:05;2.40;99.90
20432;DHT22;10375;49.136;10.366;2024-01-06T02:52:32;2.40;99.90
20432;DHT22;10375;49.136;10.366;2024-01-06T02:54:59;2.40;99.90
20432;DHT22;10375;49.136;10.366;2024-01-06T02:57:31;2.40;99.90
20432;DHT22;10375;49.136;10.366;2024-01-06T02:59:58;2.40;99.90
20432;DHT22;10375;49.136;10.366;2024-01-06T03:02:25;2.40;99.90
20432;DHT22;10375;49.136;10.366;2024-01-06T03:04:52;2.40;99.90
20432;DHT22;10375;49.136;10.366;2024-01-06T03:07:19;2.50;99.90
20432;DHT22;10375;49.136;10.366;2024-01-06T03:09:46;2.50;99.90
20432;DHT22;10375;49.136;10.366;2024-01-06T03:12:14;2.50;99.90
20432;DHT22;10375;49.136;10.366;2024-01-06T03:14:41;2.50;99.90
20432;DHT22;10375;49.136;10.366;2024-01-06T03:17:08;2.50;99.90
20432;DHT22;10375;49.136;10.366;2024-01-06T03:19:37;2.50;99.90
20432;DHT22;10375;49.136;10.366;2024-01-06T03:22:05;2.50;99.90
20432;DHT22;10375;49.136;10.366;2024-01-06T03:24:32;2.50;99.90
20432;DHT22;10375;49.136;10.366;2024-01-06T03:26:59;2.50;99.90
20432;DHT22;10375;49.136;10.366;2024-01-06T03:29:26;2.50;99.90
20432;DHT22;10375;49.136;10.366;2024-01-06T03:31:53;2.50;99.90
20432;DHT22;10375;49.136;10.366;2024-01-06T03:34:20;2.50;99.90
20432;DHT22;10375;49.136;10.366;2024-01-06T03:36:47;2.40;99.90
20432;DHT22;10375;49.136;10.366;2024-01-06T03:39:15;2.50;99.90
20432;DHT22;10375;49.136;10.366;2024-01-06T03:41:42;2.40;99.90
20432;DHT22;10375;49.136;10.366;2024-01-06T03:44:09;2.40;99.90
20432;DHT22;10375;49.136;10.366;2024-01-06T03:46:37;2.40;99.90
20432;DHT22;10375;49.136;10.366;2024-01-06T03:49:04;2.40;99.90
20432;DHT22;10375;49.136;10.366;2024-01-06T03:51:31;2.40;99.90
20432;DHT22;10375;49.136;10.366;2024-01-06T03:53:58;2.40;99.90
20432;DHT22;10375;49.136;10.366;2024-01-06T03:56:25;2.40;99.90
20432;DHT22;10375;49.136;10.366;2024-01-06T03:58:53;2.40;99.90
20432;DHT22;10375;49.136;10.366;2024-01-06T04:01:20;2.40;99.90
20432;DHT22;10375;49.136;10.366;2024-01-06T04:03:48;2.40;99.90
20432;DHT22;10375;49.136;10.366;2024-01-06T04:06:15;2.40;99.90
20432;DHT22;10375;49.136;10.366;2024-01-06T04:08:42;2.40;99.90
20432;DHT22;10375;49.136;10.366;2024-01-06T04:11:09;2.40;99.90
20432;DHT22;10375;49.136;10.366;2024-01-06T04:13:37;2.40;99.90
20432;DHT22;10375;49.136;10.366;2024-01-06T04:16:04;2.40;99.90
20432;DHT22;10375;49.136;10.366;2024-01-06T04:18:32;2.30;99.90
20432;DHT22;10375;49.136;10.366;2024-01-06T04:20:59;2.30;99.90
20432;DHT22;10375;49.136;10.366;2024-01-06T04:23:26;2.30;99.90
20432;DHT22;10375;49.136;10.366;2024-01-06T04:25:53;2.30;99.90
20432;DHT22;10375;49.136;10.366;2024-01-06T04:28:21;2.20;99.90
20432;DHT22;10375;49.136;10.366;2024-01-06T04:30:48;2.20;99.90
20432;DHT22;10375;49.136;10.366;2024-01-06T04:33:15;2.10;99.90
20432;DHT22;10375;49.136;10.366;2024-01-06T04:35:43;2.10;99.90
20432;DHT22;10375;49.136;10.366;2024-01-06T04:38:10;2.00;99.90
20432;DHT22;10375;49.136;10.366;2024-01-06T04:40:37;2.10;99.90
20432;DHT22;10375;49.136;10.366;2024-01-06T04:43:04;2.10;99.90
20432;DHT22;10375;49.136;10.366;2024-01-06T04:45:31;2.00;99.90
20432;DHT22;10375;49.136;10.366;2024-01-06T04:47:58;2.00;99.90
20432;DHT22;10375;49.136;10.366;2024-01-06T04:50:25;2.00;99.90
20432;DHT22;10375;49.136;10.366;2024-01-06T04:52:52;2.00;99.90
20432;DHT22;10375;49.136;10.366;2024-01-06T04:55:19;2.00;99.90
20432;DHT22;10375;49.136;10.366;2024-01-06T04:57:48;2.00;99.90
20432;DHT22;10375;49.136;10.366;2024-01-06T05:00:16;2.00;99.90
20432;DHT22;10375;49.136;10.366;2024-01-06T05:02:44;2.00;99.90
20432;DHT22;10375;49.136;10.366;2024-01-06T05:05:11;2.00;99.90
20432;DHT22;10375;49.136;10.366;2024-01-06T05:07:38;2.10;99.90
20432;DHT22;10375;49.136;10.366;2024-01-06T05:10:06;2.10;99.90
20432;DHT22;10375;49.136;10.366;2024-01-06T05:12:33;2.10;99.90
20432;DHT22;10375;49.136;10.366;2024-01-06T05:15:00;2.10;99.90
20432;DHT22;10375;49.136;10.366;2024-01-06T05:17:28;2.10;99.90
20432;DHT22;10375;49.136;10.366;2024-01-06T05:19:55;2.10;99.90
20432;DHT22;10375;49.136;10.366;2024-01-06T05:22:22;2.10;99.90
20432;DHT22;10375;49.136;10.366;2024-01-06T05:24:49;2.10;99.90
20432;DHT22;10375;49.136;10.366;2024-01-06T05:27:20;2.10;99.90
20432;DHT22;10375;49.136;10.366;2024-01-06T05:29:47;2.20;99.90
20432;DHT22;10375;49.136;10.366;2024-01-06T05:32:16;2.20;99.90
20432;DHT22;10375;49.136;10.366;2024-01-06T05:34:45;2.30;99.90
20432;DHT22;10375;49.136;10.366;2024-01-06T05:37:12;2.30;99.90
20432;DHT22;10375;49.136;10.366;2024-01-06T05:39:39;2.30;99.90
20432;DHT22;10375;49.136;10.366;2024-01-06T05:42:09;2.20;99.90
20432;DHT22;10375;49.136;10.366;2024-01-06T05:44:38;2.30;99.90
20432;DHT22;10375;49.136;10.366;2024-01-06T05:47:06;2.20;99.90
20432;DHT22;10375;49.136;10.366;2024-01-06T05:49:35;2.30;99.90
20432;DHT22;10375;49.136;10.366;2024-01-06T05:52:02;2.20;99.90
20432;DHT22;10375;49.136;10.366;2024-01-06T05:54:30;2.30;99.90
20432;DHT22;10375;49.136;10.366;2024-01-06T05:56:57;2.30;99.90
20432;DHT22;10375;49.136;10.366;2024-01-06T05:59:24;2.30;99.90
20432;DHT22;10375;49.136;10.366;2024-01-06T06:01:52;2.30;99.90
20432;DHT22;10375;49.136;10.366;2024-01-06T06:04:19;2.30;99.90
20432;DHT22;10375;49.136;10.366;2024-01-06T06:06:46;2.30;99.90
20432;DHT22;10375;49.136;10.366;2024-01-06T06:09:13;2.30;99.90
20432;DHT22;10375;49.136;10.366;2024-01-06T06:11:42;2.40;99.90
20432;DHT22;10375;49.136;10.366;2024-01-06T06:14:09;2.40;99.90
20432;DHT22;10375;49.136;10.366;2024-01-06T06:16:37;2.40;99.90
20432;DHT22;10375;49.136;10.366;2024-01-06T06:19:04;2.40;99.90
20432;DHT22;10375;49.136;10.366;2024-01-06T06:21:31;2.50;99.90
20432;DHT22;10375;49.136;10.366;2024-01-06T06:23:58;2.60;99.90
20432;DHT22;10375;49.136;10.366;2024-01-06T06:26:27;2.60;99.90
20432;DHT22;10375;49.136;10.366;2024-01-06T06:28:55;2.70;99.90
20432;DHT22;10375;49.136;10.366;2024-01-06T06:31:22;2.70;99.90
20432;DHT22;10375;49.136;10.366;2024-01-06T06:33:49;2.70;99.90
20432;DHT22;10375;49.136;10.366;2024-01-06T06:36:17;2.70;99.90
20432;DHT22;10375;49.136;10.366;2024-01-06T06:38:44;2.70;99.90
20432;DHT22;10375;49.136;10.366;2024-01-06T06:41:11;2.70;99.90
20432;DHT22;10375;49.136;10.366;2024-01-06T06:43:38;2.70;99.90
20432;DHT22;10375;49.136;10.366;2024-01-06T06:46:05;2.70;99.90
20432;DHT22;10375;49.136;10.366;2024-01-06T06:48:33;2.70;99.90
20432;DHT22;10375;49.136;10.366;2024-01-06T06:51:02;2.70;99.90
20432;DHT22;10375;49.136;10.366;2024-01-06T06:53:30;2.80;99.90
20432;DHT22;10375;49.136;10.366;2024-01-06T06:55:57;2.70;99.90
20432;DHT22;10375;49.136;10.366;2024-01-06T06:58:24;2.80;99.90
20432;DHT22;10375;49.136;10.366;2024-01-06T07:00:51;2.80;99.90
20432;DHT22;10375;49.136;10.366;2024-01-06T07:03:20;2.80;99.90
20432;DHT22;10375;49.136;10.366;2024-01-06T07:05:48;2.90;99.90
20432;DHT22;10375;49.136;10.366;2024-01-06T07:08:15;2.80;99.90
20432;DHT22;10375;49.136;10.366;2024-01-06T07:10:42;2.80;99.90
20432;DHT22;10375;49.136;10.366;2024-01-06T07:13:09;2.70;99.90
20432;DHT22;10375;49.136;10.366;2024-01-06T07:15:36;2.70;99.90
20432;DHT22;10375;49.136;10.366;2024-01-06T07:18:04;2.70;99.90
20432;DHT22;10375;49.136;10.366;2024-01-06T07:20:31;2.60;99.90
20432;DHT22;10375;49.136;10.366;2024-01-06T07:22:58;2.60;99.90
20432;DHT22;10375;49.136;10.366;2024-01-06T07:25:25;2.60;99.90
20432;DHT22;10375;49.136;10.366;2024-01-06T07:27:52;2.60;99.90
20432;DHT22;10375;49.136;10.366;2024-01-06T07:30:21;2.60;99.90
20432;DHT22;10375;49.136;10.366;2024-01-06T07:32:49;2.60;99.90
20432;DHT22;10375;49.136;10.366;2024-01-06T07:35:17;2.60;99.90
20432;DHT22;10375;49.136;10.366;2024-01-06T07:37:44;2.70;99.90
20432;DHT22;10375;49.136;10.366;2024-01-06T07:40:13;2.80;99.90
20432;DHT22;10375;49.136;10.366;2024-01-06T07:42:44;2.80;99.90
20432;DHT22;10375;49.136;10.366;2024-01-06T07:45:11;2.80;99.90
20432;DHT22;10375;49.136;10.366;2024-01-06T07:47:40;2.70;99.90
20432;DHT22;10375;49.136;10.366;2024-01-06T07:50:08;2.70;99.90
20432;DHT22;10375;49.136;10.366;2024-01-06T07:52:35;2.70;99.90
20432;DHT22;10375;49.136;10.366;2024-01-06T07:55:02;2.70;99.90
20432;DHT22;10375;49.136;10.366;2024-01-06T07:57:30;2.80;99.90
20432;DHT22;10375;49.136;10.366;2024-01-06T07:59:57;2.80;99.90
20432;DHT22;10375;49.136;10.366;2024-01-06T08:02:27;2.80;99.90
20432;DHT22;10375;49.136;10.366;2024-01-06T08:04:55;2.90;99.90
20432;DHT22;10375;49.136;10.366;2024-01-06T08:07:24;2.90;99.90
20432;DHT22;10375;49.136;10.366;2024-01-06T08:09:51;2.90;99.90
20432;DHT22;10375;49.136;10.366;2024-01-06T08:12:18;3.00;99.90
20432;DHT22;10375;49.136;10.366;2024-01-06T08:14:45;3.00;99.90
20432;DHT22;10375;49.136;10.366;2024-01-06T08:17:12;3.00;99.90
20432;DHT22;10375;49.136;10.366;2024-01-06T08:19:43;3.10;99.90
20432;DHT22;10375;49.136;10.366;2024-01-06T08:22:10;3.20;99.90
20432;DHT22;10375;49.136;10.366;2024-01-06T08:24:37;3.30;99.90
20432;DHT22;10375;49.136;10.366;2024-01-06T08:27:05;3.40;99.90
20432;DHT22;10375;49.136;10.366;2024-01-06T08:29:32;3.60;99.90
20432;DHT22;10375;49.136;10.366;2024-01-06T08:31:59;3.70;99.90
20432;DHT22;10375;49.136;10.366;2024-01-06T08:34:26;3.80;99.90
20432;DHT22;10375;49.136;10.366;2024-01-06T08:36:58;3.90;99.90
20432;DHT22;10375;49.136;10.366;2024-01-06T08:39:26;3.90;99.90
20432;DHT22;10375;49.136;10.366;2024-01-06T08:41:53;4.00;99.90
20432;DHT22;10375;49.136;10.366;2024-01-06T08:44:23;4.00;99.90
20432;DHT22;10375;49.136;10.366;2024-01-06T08:46:50;4.00;99.90
20432;DHT22;10375;49.136;10.366;2024-01-06T08:49:17;4.00;99.90
20432;DHT22;10375;49.136;10.366;2024-01-06T08:51:45;4.00;99.90
20432;DHT22;10375;49.136;10.366;2024-01-06T08:54:12;4.00;99.90
20432;DHT22;10375;49.136;10.366;2024-01-06T08:56:39;3.90;99.90
20432;DHT22;10375;49.136;10.366;2024-01-06T08:59:06;3.90;99.90
20432;DHT22;10375;49.136;10.366;2024-01-06T09:01:33;3.90;99.90
20432;DHT22;10375;49.136;10.366;2024-01-06T09:04:03;3.90;99.90
20432;DHT22;10375;49.136;10.366;2024-01-06T09:06:30;3.90;99.90
20432;DHT22;10375;49.136;10.366;2024-01-06T09:08:58;3.90;99.90
20432;DHT22;10375;49.136;10.366;2024-01-06T09:11:25;3.90;99.90
20432;DHT22;10375;49.136;10.366;2024-01-06T09:13:52;3.90;99.90
20432;DHT22;10375;49.136;10.366;2024-01-06T09:16:20;3.90;99.90
20432;DHT22;10375;49.136;10.366;2024-01-06T09:18:48;3.90;99.90
20432;DHT22;10375;49.136;10.366;2024-01-06T09:21:15;3.90;99.90
20432;DHT22;10375;49.136;10.366;2024-01-06T09:23:44;3.90;99.90
20432;DHT22;10375;49.136;10.366;2024-01-06T09:26:11;4.00;99.90
20432;DHT22;10375;49.136;10.366;2024-01-06T09:28:39;4.10;99.90
20432;DHT22;10375;49.136;10.366;2024-01-06T09:31:06;4.20;99.90
20432;DHT22;10375;49.136;10.366;2024-01-06T09:33:33;4.20;99.90
20432;DHT22;10375;49.136;10.366;2024-01-06T09:36:02;4.20;99.90
20432;DHT22;10375;49.136;10.366;2024-01-06T09:38:29;4.20;99.90
20432;DHT22;10375;49.136;10.366;2024-01-06T09:40:58;4.20;99.90
20432;DHT22;10375;49.136;10.366;2024-01-06T09:43:25;4.30;99.90
20432;DHT22;10375;49.136;10.366;2024-01-06T09:46:14;4.20;99.90
20432;DHT22;10375;49.136;10.366;2024-01-06T09:48:43;4.30;99.90
20432;DHT22;10375;49.136;10.366;2024-01-06T09:51:12;4.30;99.90
20432;DHT22;10375;49.136;10.366;2024-01-06T09:53:48;4.30;99.90
20432;DHT22;10375;49.136;10.366;2024-01-06T09:56:16;4.30;99.90
20432;DHT22;10375;49.136;10.366;2024-01-06T09:58:45;4.30;99.90
20432;DHT22;10375;49.136;10.366;2024-01-06T10:01:13;4.30;99.90
20432;DHT22;10375;49.136;10.366;2024-01-06T10:03:42;4.30;99.90
20432;DHT22;10375;49.136;10.366;2024-01-06T10:06:09;4.30;99.90
20432;DHT22;10375;49.136;10.366;2024-01-06T10:08:37;4.30;99.90
20432;DHT22;10375;49.136;10.366;2024-01-06T10:11:07;4.40;99.90
20432;DHT22;10375;49.136;10.366;2024-01-06T10:13:37;4.40;99.90
20432;DHT22;10375;49.136;10.366;2024-01-06T10:16:08;4.50;99.90
20432;DHT22;10375;49.136;10.366;2024-01-06T10:18:36;4.50;99.90
20432;DHT22;10375;49.136;10.366;2024-01-06T10:21:04;4.50;99.90
20432;DHT22;10375;49.136;10.366;2024-01-06T10:23:33;4.40;99.90
20432;DHT22;10375;49.136;10.366;2024-01-06T10:26:00;4.40;99.90
20432;DHT22;10375;49.136;10.366;2024-01-06T10:28:31;4.40;99.90
20432;DHT22;10375;49.136;10.366;2024-01-06T10:30:59;4.40;99.90
20432;DHT22;10375;49.136;10.366;2024-01-06T10:33:27;4.50;99.90
20432;DHT22;10375;49.136;10.366;2024-01-06T10:35:55;4.40;99.90
20432;DHT22;10375;49.136;10.366;2024-01-06T10:38:26;4.50;99.90
20432;DHT22;10375;49.136;10.366;2024-01-06T10:41:01;4.50;99.90
20432;DHT22;10375;49.136;10.366;2024-01-06T10:43:36;4.40;99.90
20432;DHT22;10375;49.136;10.366;2024-01-06T10:46:08;4.50;99.90
20432;DHT22;10375;49.136;10.366;2024-01-06T10:48:39;4.50;99.90
20432;DHT22;10375;49.136;10.366;2024-01-06T10:51:11;4.50;99.90
20432;DHT22;10375;49.136;10.366;2024-01-06T10:53:41;4.60;99.90
20432;DHT22;10375;49.136;10.366;2024-01-06T10:56:09;4.50;99.90
20432;DHT22;10375;49.136;10.366;2024-01-06T10:58:46;4.60;99.90
20432;DHT22;10375;49.136;10.366;2024-01-06T11:01:21;4.60;99.90
20432;DHT22;10375;49.136;10.366;2024-01-06T11:03:53;4.60;99.90
20432;DHT22;10375;49.136;10.366;2024-01-06T11:06:21;4.70;99.90
20432;DHT22;10375;49.136;10.366;2024-01-06T11:09:07;4.70;99.90
20432;DHT22;10375;49.136;10.366;2024-01-06T11:11:36;4.70;99.90
20432;DHT22;10375;49.136;10.366;2024-01-06T11:14:23;4.70;99.90
20432;DHT22;10375;49.136;10.366;2024-01-06T11:16:52;4.80;99.90
20432;DHT22;10375;49.136;10.366;2024-01-06T11:22:24;4.80;99.90
20432;DHT22;10375;49.136;10.366;2024-01-06T11:24:53;4.80;99.90
20432;DHT22;10375;49.136;10.366;2024-01-06T11:27:23;4.70;99.90
20432;DHT22;10375;49.136;10.366;2024-01-06T11:29:58;4.70;99.90
20432;DHT22;10375;49.136;10.366;2024-01-06T11:32:35;4.80;99.90
20432;DHT22;10375;49.136;10.366;2024-01-06T11:35:14;4.80;99.90
20432;DHT22;10375;49.136;10.366;2024-01-06T11:43:08;5.00;99.90
20432;DHT22;10375;49.136;10.366;2024-01-06T11:45:36;5.10;99.90
20432;DHT22;10375;49.136;10.366;2024-01-06T11:48:08;5.10;99.90
20432;DHT22;10375;49.136;10.366;2024-01-06T11:50:38;5.10;99.90
20432;DHT22;10375;49.136;10.366;2024-01-06T11:53:06;5.10;99.90
20432;DHT22;10375;49.136;10.366;2024-01-06T11:55:34;5.00;99.90
20432;DHT22;10375;49.136;10.366;2024-01-06T11:58:02;5.00;99.90
20432;DHT22;10375;49.136;10.366;2024-01-06T12:00:34;5.00;99.90
20432;DHT22;10375;49.136;10.366;2024-01-06T12:03:05;4.90;99.90
20432;DHT22;10375;49.136;10.366;2024-01-06T12:05:32;4.90;99.90
20432;DHT22;10375;49.136;10.366;2024-01-06T12:08:01;4.80;99.90
20432;DHT22;10375;49.136;10.366;2024-01-06T12:10:29;4.80;99.90
20432;DHT22;10375;49.136;10.366;2024-01-06T12:13:04;4.70;99.90
20432;DHT22;10375;49.136;10.366;2024-01-06T12:15:32;4.70;99.90
20432;DHT22;10375;49.136;10.366;2024-01-06T12:18:03;4.70;99.90
20432;DHT22;10375;49.136;10.366;2024-01-06T12:20:31;4.70;99.90
20432;DHT22;10375;49.136;10.366;2024-01-06T12:22:59;4.70;99.90
20432;DHT22;10375;49.136;10.366;2024-01-06T12:25:27;4.80;99.90
20432;DHT22;10375;49.136;10.366;2024-01-06T12:27:56;4.80;99.90
20432;DHT22;10375;49.136;10.366;2024-01-06T12:30:23;4.80;99.90
20432;DHT22;10375;49.136;10.366;2024-01-06T12:32:51;4.80;99.90
20432;DHT22;10375;49.136;10.366;2024-01-06T12:35:21;4.80;99.90
20432;DHT22;10375;49.136;10.366;2024-01-06T12:37:51;4.80;99.90
20432;DHT22;10375;49.136;10.366;2024-01-06T12:40:19;4.80;99.90
20432;DHT22;10375;49.136;10.366;2024-01-06T12:42:48;4.70;99.90
20432;DHT22;10375;49.136;10.366;2024-01-06T12:45:15;4.70;99.90
20432;DHT22;10375;49.136;10.366;2024-01-06T12:47:44;4.70;99.90
20432;DHT22;10375;49.136;10.366;2024-01-06T12:50:11;4.70;99.90
20432;DHT22;10375;49.136;10.366;2024-01-06T12:52:38;4.70;99.90
20432;DHT22;10375;49.136;10.366;2024-01-06T12:55:07;4.60;99.90
20432;DHT22;10375;49.136;10.366;2024-01-06T12:57:35;4.60;99.90
20432;DHT22;10375;49.136;10.366;2024-01-06T13:00:03;4.60;99.90
20432;DHT22;10375;49.136;10.366;2024-01-06T13:02:32;4.60;99.90
20432;DHT22;10375;49.136;10.366;2024-01-06T13:04:59;4.60;99.90
20432;DHT22;10375;49.136;10.366;2024-01-06T13:07:27;4.60;99.90
20432;DHT22;10375;49.136;10.366;2024-01-06T13:09:54;4.60;99.90
20432;DHT22;10375;49.136;10.366;2024-01-06T13:12:21;4.60;99.90
20432;DHT22;10375;49.136;10.366;2024-01-06T13:14:50;4.60;99.90
20432;DHT22;10375;49.136;10.366;2024-01-06T13:17:18;4.60;99.90
20432;DHT22;10375;49.136;10.366;2024-01-06T13:19:45;4.60;99.90
20432;DHT22;10375;49.136;10.366;2024-01-06T13:22:12;4.60;99.90
20432;DHT22;10375;49.136;10.366;2024-01-06T13:24:41;4.60;99.90
20432;DHT22;10375;49.136;10.366;2024-01-06T13:27:08;4.70;99.90
20432;DHT22;10375;49.136;10.366;2024-01-06T13:29:36;4.70;99.90
20432;DHT22;10375;49.136;10.366;2024-01-06T13:32:04;4.70;99.90
20432;DHT22;10375;49.136;10.366;2024-01-06T13:34:32;4.70;99.90
20432;DHT22;10375;49.136;10.366;2024-01-06T13:36:59;4.70;99.90
20432;DHT22;10375;49.136;10.366;2024-01-06T13:39:27;4.70;99.90
20432;DHT22;10375;49.136;10.366;2024-01-06T13:41:55;4.70;99.90
20432;DHT22;10375;49.136;10.366;2024-01-06T13:44:22;4.70;99.90
20432;DHT22;10375;49.136;10.366;2024-01-06T13:46:49;4.70;99.90
20432;DHT22;10375;49.136;10.366;2024-01-06T13:49:18;4.70;99.90
20432;DHT22;10375;49.136;10.366;2024-01-06T13:51:45;4.60;99.90
20432;DHT22;10375;49.136;10.366;2024-01-06T13:54:13;4.60;99.90
20432;DHT22;10375;49.136;10.366;2024-01-06T13:56:44;4.60;99.90
20432;DHT22;10375;49.136;10.366;2024-01-06T13:59:11;4.60;99.90
20432;DHT22;10375;49.136;10.366;2024-01-06T14:01:38;4.60;99.90
20432;DHT22;10375;49.136;10.366;2024-01-06T14:04:06;4.60;99.90
20432;DHT22;10375;49.136;10.366;2024-01-06T14:06:34;4.60;99.90
20432;DHT22;10375;49.136;10.366;2024-01-06T14:09:01;4.60;99.90
20432;DHT22;10375;49.136;10.366;2024-01-06T14:11:28;4.60;99.90
20432;DHT22;10375;49.136;10.366;2024-01-06T14:13:58;4.60;99.90
20432;DHT22;10375;49.136;10.366;2024-01-06T14:16:25;4.60;99.90
20432;DHT22;10375;49.136;10.366;2024-01-06T14:18:52;4.60;99.90
20432;DHT22;10375;49.136;10.366;2024-01-06T14:21:20;4.50;99.90
20432;DHT22;10375;49.136;10.366;2024-01-06T14:23:47;4.50;99.90
20432;DHT22;10375;49.136;10.366;2024-01-06T14:26:19;4.50;99.90
20432;DHT22;10375;49.136;10.366;2024-01-06T14:28:47;4.50;99.90
20432;DHT22;10375;49.136;10.366;2024-01-06T14:31:15;4.50;99.90
20432;DHT22;10375;49.136;10.366;2024-01-06T14:33:43;4.40;99.90
20432;DHT22;10375;49.136;10.366;2024-01-06T14:36:11;4.40;99.90
20432;DHT22;10375;49.136;10.366;2024-01-06T14:38:38;4.40;99.90
20432;DHT22;10375;49.136;10.366;2024-01-06T14:41:05;4.40;99.90
20432;DHT22;10375;49.136;10.366;2024-01-06T14:43:33;4.40;99.90
20432;DHT22;10375;49.136;10.366;2024-01-06T14:46:00;4.40;99.90
20432;DHT22;10375;49.136;10.366;2024-01-06T14:48:27;4.30;99.90
20432;DHT22;10375;49.136;10.366;2024-01-06T14:50:54;4.40;99.90
20432;DHT22;10375;49.136;10.366;2024-01-06T14:53:22;4.40;99.90
20432;DHT22;10375;49.136;10.366;2024-01-06T14:55:49;4.40;99.90
20432;DHT22;10375;49.136;10.366;2024-01-06T14:58:16;4.30;99.90
20432;DHT22;10375;49.136;10.366;2024-01-06T15:00:43;4.30;99.90
20432;DHT22;10375;49.136;10.366;2024-01-06T15:03:10;4.30;99.90
20432;DHT22;10375;49.136;10.366;2024-01-06T15:05:38;4.30;99.90
20432;DHT22;10375;49.136;10.366;2024-01-06T15:08:05;4.30;99.90
20432;DHT22;10375;49.136;10.366;2024-01-06T15:10:32;4.30;99.90
20432;DHT22;10375;49.136;10.366;2024-01-06T15:13:02;4.30;99.90
20432;DHT22;10375;49.136;10.366;2024-01-06T15:15:30;4.20;99.90
20432;DHT22;10375;49.136;10.366;2024-01-06T15:17:57;4.20;99.90
20432;DHT22;10375;49.136;10.366;2024-01-06T15:20:25;4.20;99.90
20432;DHT22;10375;49.136;10.366;2024-01-06T15:22:52;4.20;99.90
20432;DHT22;10375;49.136;10.366;2024-01-06T15:25:19;4.10;99.90
20432;DHT22;10375;49.136;10.366;2024-01-06T15:27:46;4.10;99.90
20432;DHT22;10375;49.136;10.366;2024-01-06T15:30:14;4.10;99.90
20432;DHT22;10375;49.136;10.366;2024-01-06T15:32:44;4.10;99.90
20432;DHT22;10375;49.136;10.366;2024-01-06T15:35:11;4.10;99.90
20432;DHT22;10375;49.136;10.366;2024-01-06T15:37:38;4.00;99.90
20432;DHT22;10375;49.136;10.366;2024-01-06T15:40:06;4.00;99.90
20432;DHT22;10375;49.136;10.366;2024-01-06T15:42:34;4.00;99.90